Time;durP1;ratioP1;P1;durP2;ratioP2;P2;SDS_P1;SDS_P2;PMS_P1;PMS_P2;Temp;Humidity;BMP_temperature;BMP_pressure;BME280_temperature;BME280_humidity;BME280_pressure;Samples;Min_cycle;Max_cycle;Signal;HPM_P1;HPM_P2
2021/12/13 00:00:50;;;;;;;91.30;29.58;;;10.40;99.90;;;;;;5048930;28;20043;-59
2021/12/13 00:03:49;;;;;;;93.55;28.55;;;10.10;99.90;;;;;;5051289;28;20037;-55
2021/12/13 00:06:18;;;;;;;96.82;28.45;;;;;;;;;;5045155;28;20121;-54
2021/12/13 00:08:46;;;;;;;131.40;33.75;;;;;;;;;;5032602;28;20153;-58
2021/12/13 00:11:26;;;;;;;111.47;32.75;;;;;;;;;;5049767;28;20400;-57
2021/12/13 00:13:54;;;;;;;113.88;31.63;;;;;;;;;;5050723;28;20073;-55
2021/12/13 00:16:33;;;;;;;133.95;34.88;;;9.60;99.90;;;;;;5050628;28;20098;-55
2021/12/13 00:19:06;;;;;;;109.93;32.00;;;;;;;;;;5047629;28;20048;-59
2021/12/13 00:21:39;;;;;;;121.25;32.70;;;9.60;99.90;;;;;;5051144;28;20115;-54
2021/12/13 00:24:08;;;;;;;102.72;30.35;;;;;;;;;;5050582;28;20071;-57
2021/12/13 00:26:38;;;;;;;132.55;35.25;;;;;;;;;;5032241;28;20522;-54
2021/12/13 00:29:11;;;;;;;110.18;32.78;;;;;;;;;;5051214;28;20044;-56
2021/12/13 00:31:42;;;;;;;114.78;34.55;;;10.00;99.90;;;;;;5050281;28;20164;-57
2021/12/13 00:34:12;;;;;;;129.93;35.05;;;;;;;;;;5050583;28;20060;-59
2021/12/13 00:36:45;;;;;;;123.18;35.00;;;;;;;;;;5050656;28;20029;-57
2021/12/13 00:39:57;;;;;;;131.13;35.17;;;9.50;99.90;;;;;;5050648;28;20049;-56
2021/12/13 00:42:25;;;;;;;107.35;32.40;;;;;;;;;;5050274;28;20040;-56
2021/12/13 00:44:58;;;;;;;107.00;33.28;;;9.80;99.90;;;;;;5050258;28;20045;-57
2021/12/13 00:47:30;;;;;;;108.22;33.13;;;9.80;99.90;;;;;;5032839;28;20069;-58
2021/12/13 00:50:16;;;;;;;116.53;35.78;;;;;;;;;;5050773;28;20045;-57
2021/12/13 00:52:46;;;;;;;120.88;35.58;;;9.90;99.90;;;;;;5016272;28;20052;-56
2021/12/13 00:55:22;;;;;;;101.05;33.70;;;9.70;99.90;;;;;;5032156;28;20048;-57
2021/12/13 00:58:04;;;;;;;115.13;33.83;;;10.10;99.90;;;;;;5050710;28;20033;-56
2021/12/13 01:00:34;;;;;;;90.55;31.45;;;9.30;99.90;;;;;;5054861;22;20064;-55
2021/12/13 01:03:02;;;;;;;84.75;29.67;;;;;;;;;;5047321;28;20518;-58
2021/12/13 01:06:41;;;;;;;84.47;29.02;;;10.40;99.90;;;;;;5045696;28;20033;-56
2021/12/13 01:09:26;;;;;;;83.90;28.48;;;;;;;;;;4895668;29;20040;-57
2021/12/13 01:12:03;;;;;;;85.97;29.75;;;9.50;99.90;;;;;;4930600;29;20610;-56
2021/12/13 01:14:40;;;;;;;84.15;27.45;;;;;;;;;;4993860;28;20054;-57
2021/12/13 01:17:19;;;;;;;80.72;27.92;;;;;;;;;;5045763;28;20064;-57
2021/12/13 01:19:58;;;;;;;68.18;27.02;;;9.60;99.90;;;;;;5046422;28;20041;-57
2021/12/13 01:22:53;;;;;;;78.78;26.67;;;10.60;99.90;;;;;;5052226;28;20404;-54
2021/12/13 01:28:41;;;;;;;84.13;32.37;;;10.40;99.90;;;;;;4954042;29;20118;-56
2021/12/13 01:31:17;;;;;;;82.60;29.50;;;9.40;99.90;;;;;;4954279;28;20283;-57
2021/12/13 01:33:45;;;;;;;83.65;29.38;;;;;;;;;;5010696;28;20115;-55
2021/12/13 01:36:19;;;;;;;94.32;29.83;;;10.10;99.90;;;;;;5042423;28;20041;-53
2021/12/13 01:38:50;;;;;;;80.25;26.65;;;;;;;;;;5041359;28;20041;-54
2021/12/13 01:41:18;;;;;;;81.13;26.77;;;;;;;;;;5027274;28;20038;-56
2021/12/13 01:43:49;;;;;;;84.63;27.85;;;;;;;;;;5054004;28;20033;-56
2021/12/13 01:46:16;;;;;;;84.97;28.27;;;;;;;;;;5052556;28;20047;-57
2021/12/13 01:48:44;;;;;;;77.38;26.30;;;9.90;99.90;;;;;;5011316;28;20103;-55
2021/12/13 01:51:13;;;;;;;90.72;29.25;;;;;;;;;;5050575;28;20529;-54
2021/12/13 01:53:59;;;;;;;78.70;27.05;;;;;;;;;;5045746;28;20037;-52
2021/12/13 01:59:30;;;;;;;76.10;27.35;;;10.10;99.90;;;;;;5038997;28;20052;-55
2021/12/13 02:01:59;;;;;;;74.90;27.23;;;9.60;99.90;;;;;;5043914;28;20044;-57
2021/12/13 02:04:26;;;;;;;87.20;27.17;;;;;;;;;;5014077;28;20052;-53
2021/12/13 02:06:55;;;;;;;76.82;28.23;;;;;;;;;;5028316;28;20124;-57
2021/12/13 02:09:25;;;;;;;85.93;27.40;;;9.60;99.90;;;;;;5041967;28;20069;-57
2021/12/13 02:11:56;;;;;;;71.43;26.60;;;;;;;;;;5042479;28;20476;-57
2021/12/13 02:14:27;;;;;;;64.57;24.48;;;;;;;;;;5044063;28;20495;-59
2021/12/13 02:19:32;;;;;;;59.25;22.33;;;;;;;;;;5037336;28;20569;-53
2021/12/13 02:22:05;;;;;;;58.75;21.95;;;;;;;;;;5030408;28;20045;-53
2021/12/13 02:24:31;;;;;;;61.53;21.00;;;;;;;;;;5033972;28;20037;-57
2021/12/13 02:26:58;;;;;;;59.53;21.67;;;9.50;99.90;;;;;;5032883;28;20061;-54
2021/12/13 02:29:35;;;;;;;54.00;21.00;;;9.70;99.90;;;;;;5044161;28;20060;-53
2021/12/13 02:32:01;;;;;;;61.53;23.55;;;10.00;99.90;;;;;;5048411;28;20041;-56
2021/12/13 02:34:30;;;;;;;54.67;20.60;;;;;;;;;;5045150;28;20499;-54
2021/12/13 02:36:56;;;;;;;58.83;20.98;;;;;;;;;;5042921;28;20037;-54
2021/12/13 02:39:24;;;;;;;45.95;18.65;;;;;;;;;;5052346;28;20126;-57
2021/12/13 02:41:50;;;;;;;50.53;19.73;;;;;;;;;;5043897;28;20045;-56
2021/12/13 02:44:18;;;;;;;43.33;15.43;;;;;;;;;;5051618;28;20112;-55
2021/12/13 02:46:45;;;;;;;53.00;16.90;;;10.50;99.90;;;;;;5051630;28;20408;-53
2021/12/13 02:49:15;;;;;;;34.92;14.35;;;9.30;99.90;;;;;;5044726;28;20126;-56
2021/12/13 02:52:01;;;;;;;42.97;14.40;;;;;;;;;;5050527;28;20526;-56
2021/12/13 02:54:29;;;;;;;35.00;14.95;;;;;;;;;;5034184;28;20488;-57
2021/12/13 02:57:07;;;;;;;38.17;13.30;;;;;;;;;;5047680;28;20044;-58
2021/12/13 02:59:36;;;;;;;38.72;14.07;;;10.40;99.90;;;;;;5020722;28;20055;-56
2021/12/13 03:02:06;;;;;;;31.98;13.13;;;;;;;;;;5051328;28;20051;-57
2021/12/13 03:04:32;;;;;;;33.15;11.55;;;;;;;;;;5032084;28;20191;-58
2021/12/13 03:07:09;;;;;;;32.13;12.90;;;;;;;;;;5040336;28;20500;-57
2021/12/13 03:09:36;;;;;;;38.38;12.82;;;;;;;;;;5040478;28;20029;-57
2021/12/13 03:12:04;;;;;;;34.38;12.57;;;9.40;99.90;;;;;;5044195;28;20209;-54
2021/12/13 03:14:32;;;;;;;39.13;12.68;;;;;;;;;;5052202;28;20116;-58
2021/12/13 03:17:04;;;;;;;34.53;12.77;;;;;;;;;;5050674;28;20095;-56
2021/12/13 03:20:02;;;;;;;32.47;12.90;;;9.70;99.90;;;;;;5037400;28;20052;-56
2021/12/13 03:22:34;;;;;;;36.67;12.15;;;;;;;;;;5045935;28;20442;-57
2021/12/13 03:25:00;;;;;;;28.45;10.73;;;;;;;;;;5025161;28;20045;-56
2021/12/13 03:27:36;;;;;;;31.08;12.70;;;9.70;99.90;;;;;;5037333;28;20454;-56
2021/12/13 03:30:08;;;;;;;36.67;10.43;;;;;;;;;;5043785;28;20563;-56
2021/12/13 03:32:40;;;;;;;22.52;10.40;;;;;;;;;;5046160;28;20140;-58
2021/12/13 03:35:26;;;;;;;22.13;9.95;;;;;;;;;;5031358;28;20045;-55
2021/12/13 03:38:00;;;;;;;37.35;10.98;;;;;;;;;;5025665;28;20053;-55
2021/12/13 03:40:26;;;;;;;25.77;11.10;;;;;;;;;;5032004;28;20053;-55
2021/12/13 03:42:55;;;;;;;28.45;11.13;;;;;;;;;;5022033;28;20320;-57
2021/12/13 03:45:30;;;;;;;30.52;12.48;;;;;;;;;;5033043;28;20041;-54
2021/12/13 03:47:57;;;;;;;28.63;11.60;;;;;;;;;;5042972;28;20045;-57
2021/12/13 03:50:29;;;;;;;26.95;12.18;;;;;;;;;;5022882;28;20462;-56
2021/12/13 03:52:58;;;;;;;25.35;11.43;;;9.70;99.90;;;;;;5020357;28;20041;-55
2021/12/13 03:55:27;;;;;;;24.63;11.30;;;9.20;99.90;;;;;;5039737;28;20054;-54
2021/12/13 03:57:56;;;;;;;23.52;10.80;;;;;;;;;;5038991;28;20059;-58
2021/12/13 04:00:27;;;;;;;20.38;10.77;;;9.50;99.90;;;;;;5025125;28;20056;-57
2021/12/13 04:02:54;;;;;;;27.77;11.73;;;;;;;;;;5047224;28;20049;-57
2021/12/13 04:05:22;;;;;;;26.30;11.48;;;;;;;;;;5042438;28;20240;-56
2021/12/13 04:07:50;;;;;;;22.98;9.73;;;;;;;;;;5051485;28;20406;-55
2021/12/13 04:10:41;;;;;;;25.05;10.18;;;9.40;99.90;;;;;;5032310;28;20044;-55
2021/12/13 04:13:13;;;;;;;25.55;11.18;;;9.70;99.90;;;;;;5012412;28;20037;-55
2021/12/13 04:15:54;;;;;;;19.90;10.75;;;;;;;;;;5013164;28;20073;-57
2021/12/13 04:19:06;;;;;;;28.00;10.48;;;;;;;;;;5028714;28;20457;-57
2021/12/13 04:21:50;;;;;;;23.38;9.88;;;9.90;99.90;;;;;;5028980;28;20037;-57
2021/12/13 04:24:21;;;;;;;22.58;9.60;;;;;;;;;;5015971;28;20041;-55
2021/12/13 04:26:54;;;;;;;18.63;8.85;;;;;;;;;;5029245;28;20439;-60
2021/12/13 04:29:22;;;;;;;17.90;8.50;;;;;;;;;;5029165;28;20616;-56
2021/12/13 04:31:49;;;;;;;22.60;8.88;;;;;;;;;;5011960;28;20060;-57
2021/12/13 04:34:15;;;;;;;24.98;9.30;;;;;;;;;;5029680;28;20541;-55
2021/12/13 04:36:50;;;;;;;14.73;7.20;;;9.10;99.90;;;;;;5029797;28;20049;-56
2021/12/13 04:39:28;;;;;;;17.95;6.93;;;9.00;99.90;;;;;;5029447;28;20641;-53
2021/12/13 04:42:06;;;;;;;14.93;6.03;;;9.20;99.90;;;;;;5029813;28;20120;-57
2021/12/13 04:44:32;;;;;;;13.98;5.72;;;;;;;;;;5027833;28;20033;-56
2021/12/13 04:47:05;;;;;;;13.15;5.28;;;;;;;;;;5030057;28;20037;-55
2021/12/13 04:49:32;;;;;;;14.98;5.47;;;9.30;99.90;;;;;;5046680;28;20128;-56
2021/12/13 04:52:03;;;;;;;12.38;4.68;;;;;;;;;;5053595;28;20045;-58
2021/12/13 04:54:31;;;;;;;14.85;5.07;;;;;;;;;;5034834;28;20219;-59
2021/12/13 04:57:00;;;;;;;12.48;5.13;;;;;;;;;;5033554;28;20400;-57
2021/12/13 04:59:27;;;;;;;16.45;5.13;;;;;;;;;;5033828;28;20117;-56
2021/12/13 05:01:55;;;;;;;12.80;6.00;;;;;;;;;;5009642;28;20578;-55
2021/12/13 05:04:22;;;;;;;10.50;6.78;;;;;;;;;;5032802;28;20041;-56
2021/12/13 05:06:48;;;;;;;12.50;7.88;;;;;;;;;;5032952;28;20073;-56
2021/12/13 05:09:16;;;;;;;17.58;8.27;;;;;;;;;;5032870;28;20080;-60
2021/12/13 05:11:51;;;;;;;15.38;7.97;;;9.30;99.90;;;;;;5032922;28;20038;-57
2021/12/13 05:14:30;;;;;;;13.05;8.57;;;9.30;99.90;;;;;;5032163;28;20044;-57
2021/12/13 05:17:08;;;;;;;16.08;9.00;;;9.40;99.90;;;;;;5015375;28;20037;-56
2021/12/13 05:19:37;;;;;;;20.15;10.57;;;;;;;;;;5031848;28;20056;-53
2021/12/13 05:22:05;;;;;;;17.35;10.57;;;;;;;;;;5032655;28;20077;-56
2021/12/13 05:24:40;;;;;;;18.05;10.70;;;9.20;99.90;;;;;;5045834;28;20068;-56
2021/12/13 05:27:08;;;;;;;16.60;10.73;;;;;;;;;;5026820;28;20053;-59
2021/12/13 05:29:36;;;;;;;17.30;11.05;;;;;;;;;;5037254;28;20043;-56
2021/12/13 05:32:07;;;;;;;19.02;11.20;;;;;;;;;;5035903;28;20179;-55
2021/12/13 05:34:36;;;;;;;17.60;10.68;;;;;;;;;;5015479;28;20124;-56
2021/12/13 05:37:06;;;;;;;17.10;11.35;;;9.20;99.90;;;;;;5031723;28;20523;-53
2021/12/13 05:39:33;;;;;;;19.83;11.60;;;;;;;;;;5032385;28;20124;-58
2021/12/13 05:42:09;;;;;;;17.20;11.05;;;8.90;99.90;;;;;;5032487;28;20564;-57
2021/12/13 05:44:37;;;;;;;21.75;11.77;;;;;;;;;;5017854;28;20437;-58
2021/12/13 05:47:05;;;;;;;17.88;11.40;;;;;;;;;;5035423;28;20183;-57
2021/12/13 05:49:43;;;;;;;24.52;12.52;;;;;;;;;;5024530;28;20040;-59
2021/12/13 05:52:11;;;;;;;22.23;12.75;;;;;;;;;;5016241;28;20296;-56
2021/12/13 05:54:42;;;;;;;19.08;12.35;;;9.10;99.90;;;;;;5015941;28;20034;-59
2021/12/13 05:57:11;;;;;;;21.70;12.15;;;;;;;;;;5027552;28;20033;-60
2021/12/13 06:00:06;;;;;;;20.48;12.05;;;9.10;99.90;;;;;;4988171;28;20542;-57
2021/12/13 06:02:59;;;;;;;18.83;12.30;;;9.60;99.90;;;;;;5005421;28;20049;-57
2021/12/13 06:05:28;;;;;;;21.92;12.52;;;;;;;;;;5018943;28;20030;-57
2021/12/13 06:07:56;;;;;;;20.73;12.15;;;;;;;;;;5025408;28;20064;-59
2021/12/13 06:10:27;;;;;;;22.70;14.02;;;9.10;99.90;;;;;;5025985;28;20118;-58
2021/12/13 06:12:59;;;;;;;23.35;13.63;;;;;;;;;;5026102;28;20069;-57
2021/12/13 06:15:28;;;;;;;18.52;11.90;;;;;;;;;;5025980;28;20049;-59
2021/12/13 06:17:54;;;;;;;18.48;12.77;;;9.10;99.90;;;;;;5030765;28;20125;-55
2021/12/13 06:20:31;;;;;;;21.60;13.50;;;;;;;;;;5031890;28;20158;-60
2021/12/13 06:23:16;;;;;;;17.88;12.65;;;9.00;99.90;;;;;;5031523;28;20041;-57
2021/12/13 06:25:41;;;;;;;;;;;;;;;;;;5024956;28;20092;-59
2021/12/13 06:28:15;;;;;;;21.10;13.40;;;;;;;;;;5031465;28;19917;-58
2021/12/13 06:30:51;;;;;;;19.77;12.60;;;;;;;;;;5045951;28;20037;-56
2021/12/13 06:33:17;;;;;;;21.95;12.40;;;;;;;;;;5030928;28;20041;-54
2021/12/13 06:35:59;;;;;;;19.63;11.32;;;9.00;99.90;;;;;;5030897;28;20038;-57
2021/12/13 06:38:28;;;;;;;17.73;10.65;;;;;;;;;;5006498;28;20112;-57
2021/12/13 06:40:57;;;;;;;22.08;12.43;;;;;;;;;;5030819;28;20041;-56
2021/12/13 06:43:47;;;;;;;24.02;13.07;;;9.20;99.90;;;;;;5030200;28;20124;-56
2021/12/13 06:46:22;;;;;;;24.85;13.07;;;;;;;;;;5013032;28;20416;-59
2021/12/13 06:48:51;;;;;;;18.52;11.20;;;;;;;;;;5032163;28;20049;-56
2021/12/13 06:51:19;;;;;;;18.20;12.63;;;;;;;;;;5031003;28;20096;-57
2021/12/13 06:54:02;;;;;;;17.45;12.02;;;8.60;99.90;;;;;;5031421;28;20099;-57
2021/12/13 06:56:30;;;;;;;17.85;12.02;;;;;;;;;;5029298;28;20029;-53
2021/12/13 06:58:58;;;;;;;20.50;12.45;;;9.10;99.90;;;;;;5031349;28;20033;-58
2021/12/13 07:01:29;;;;;;;18.83;11.95;;;;;;;;;;5030143;28;20068;-53
2021/12/13 07:04:05;;;;;;;21.70;12.85;;;;;;;;;;5031022;28;20053;-56
2021/12/13 07:06:31;;;;;;;22.45;12.27;;;;;;;;;;5030090;28;20118;-56
2021/12/13 07:09:06;;;;;;;20.70;12.40;;;;;;;;;;5030392;28;20091;-54
2021/12/13 07:11:50;;;;;;;21.67;13.40;;;;;;;;;;5029541;28;20038;-56
2021/12/13 07:14:18;;;;;;;22.08;13.63;;;;;;;;;;5031074;28;20044;-55
2021/12/13 07:16:50;;;;;;;20.10;13.50;;;9.50;99.90;;;;;;5030752;28;20045;-57
2021/12/13 07:19:22;;;;;;;20.15;12.98;;;;;;;;;;5030893;28;20037;-56
2021/12/13 07:21:54;;;;;;;22.48;15.50;;;;;;;;;;5011655;28;20045;-56
2021/12/13 07:24:40;;;;;;;20.90;14.10;;;;;;;;;;5030083;28;20049;-57
2021/12/13 07:27:09;;;;;;;22.60;13.70;;;;;;;;;;5012205;28;20084;-59
2021/12/13 07:29:54;;;;;;;21.33;14.48;;;;;;;;;;5041628;28;20095;-55
2021/12/13 07:32:30;;;;;;;21.92;14.30;;;9.70;99.90;;;;;;5034809;28;20065;-54
2021/12/13 07:34:59;;;;;;;25.08;14.40;;;;;;;;;;5027172;28;20033;-57
2021/12/13 07:37:34;;;;;;;22.70;14.93;;;;;;;;;;5010060;28;20044;-54
2021/12/13 07:40:00;;;;;;;;;;;;;;;;;;5029046;28;20041;-54
2021/12/13 07:42:32;;;;;;;21.15;14.60;;;;;;;;;;5029934;28;19917;-56
2021/12/13 07:44:58;;;;;;;23.13;15.85;;;;;;;;;;5028932;28;20519;-56
2021/12/13 07:47:25;;;;;;;23.95;15.43;;;;;;;;;;5012404;28;20119;-54
2021/12/13 07:49:58;;;;;;;24.20;15.75;;;;;;;;;;5012680;28;20041;-56
2021/12/13 07:52:32;;;;;;;20.98;15.65;;;;;;;;;;5041538;28;20044;-57
2021/12/13 07:55:18;;;;;;;23.83;15.25;;;9.10;99.90;;;;;;5029437;28;20033;-56
2021/12/13 07:57:44;;;;;;;24.70;15.38;;;;;;;;;;5044655;28;20413;-57
2021/12/13 08:00:16;;;;;;;21.17;14.90;;;;;;;;;;5048882;28;20506;-58
2021/12/13 08:02:52;;;;;;;19.17;13.82;;;;;;;;;;5023652;28;20095;-55
2021/12/13 08:05:24;;;;;;;25.80;14.70;;;9.70;99.90;;;;;;5012437;28;20057;-56
2021/12/13 08:07:54;;;;;;;20.77;14.70;;;9.30;99.90;;;;;;5028714;28;20041;-56
2021/12/13 08:10:29;;;;;;;19.77;14.60;;;9.50;99.90;;;;;;5029526;28;20513;-57
2021/12/13 08:12:57;;;;;;;20.63;15.10;;;;;;;;;;5029898;28;20037;-57
2021/12/13 08:15:44;;;;;;;21.83;15.50;;;;;;;;;;5031123;28;20037;-60
2021/12/13 08:18:27;;;;;;;21.65;15.70;;;9.20;99.90;;;;;;5030663;28;20045;-58
2021/12/13 08:20:56;;;;;;;23.88;13.82;;;;;;;;;;5029500;28;20541;-60
2021/12/13 08:23:26;;;;;;;23.73;15.55;;;;;;;;;;5023422;28;20041;-58
2021/12/13 08:25:57;;;;;;;20.27;13.55;;;;;;;;;;5047174;28;20044;-60
2021/12/13 08:28:34;;;;;;;19.95;14.57;;;9.40;99.90;;;;;;5030149;28;20121;-58
2021/12/13 08:31:01;;;;;;;19.85;13.40;;;;;;;;;;5029821;28;20120;-60
2021/12/13 08:33:32;;;;;;;21.85;14.75;;;;;;;;;;5029691;28;20061;-59
2021/12/13 08:36:01;;;;;;;20.85;13.35;;;;;;;;;;5028504;28;20041;-57
2021/12/13 08:38:38;;;;;;;19.80;14.20;;;9.80;99.90;;;;;;5021893;28;20049;-58
2021/12/13 08:41:18;;;;;;;22.20;14.00;;;;;;;;;;5028480;28;20042;-58
2021/12/13 08:43:48;;;;;;;18.55;12.75;;;9.40;99.90;;;;;;5029907;28;20049;-57
2021/12/13 08:46:30;;;;;;;18.10;13.95;;;;;;;;;;5029168;28;20411;-58
2021/12/13 08:49:08;;;;;;;21.80;12.82;;;;;;;;;;5030239;28;20052;-60
2021/12/13 08:51:34;;;;;;;20.13;12.50;;;;;;;;;;5033033;28;20143;-61
2021/12/13 08:54:10;;;;;;;19.95;12.55;;;9.30;99.90;;;;;;5021602;28;20045;-56
2021/12/13 08:56:42;;;;;;;17.52;11.75;;;;;;;;;;5029393;28;20030;-60
2021/12/13 08:59:12;;;;;;;18.35;11.77;;;;;;;;;;5029987;28;20041;-56
2021/12/13 09:01:43;;;;;;;20.88;11.73;;;;;;;;;;5026829;28;20451;-58
2021/12/13 09:04:10;;;;;;;20.88;12.15;;;;;;;;;;5027215;28;20183;-61
2021/12/13 09:06:36;;;;;;;16.90;11.50;;;;;;;;;;5011612;28;20045;-57
2021/12/13 09:09:11;;;;;;;16.38;11.88;;;;;;;;;;5029550;28;20041;-58
2021/12/13 09:11:56;;;;;;;18.23;11.43;;;;;;;;;;5029548;28;20034;-59
2021/12/13 09:14:22;;;;;;;;;;;;;;;;;;5028691;28;20045;-58
2021/12/13 09:17:07;;;;;;;17.67;11.00;;;;;;;;;;5029736;28;19916;-57
2021/12/13 09:19:47;;;;;;;19.52;11.55;;;;;;;;;;5028770;28;20045;-60
2021/12/13 09:22:31;;;;;;;17.52;10.75;;;;;;;;;;5028705;28;20115;-59
2021/12/13 09:25:18;;;;;;;17.90;10.70;;;10.00;99.90;;;;;;5025706;28;20048;-55
2021/12/13 09:28:04;;;;;;;19.60;10.95;;;;;;;;;;5029900;28;20052;-59
2021/12/13 09:30:34;;;;;;;16.52;11.02;;;;;;;;;;5029354;28;20041;-61
2021/12/13 09:33:03;;;;;;;15.25;10.20;;;;;;;;;;5029287;28;20049;-60
2021/12/13 09:35:29;;;;;;;17.33;10.00;;;;;;;;;;5032297;28;20034;-61
2021/12/13 09:37:58;;;;;;;14.57;9.55;;;9.30;99.90;;;;;;5032701;28;20033;-59
2021/12/13 09:40:27;;;;;;;14.98;9.45;;;;;;;;;;5032940;28;20087;-58
2021/12/13 09:42:56;;;;;;;15.52;10.27;;;9.40;99.90;;;;;;5040410;28;20095;-59
2021/12/13 09:45:27;;;;;;;14.70;8.73;;;;;;;;;;5052156;28;20052;-59
2021/12/13 09:47:53;;;;;;;13.75;9.95;;;9.40;99.90;;;;;;5039839;28;20110;-58
2021/12/13 09:50:21;;;;;;;14.60;9.25;;;;;;;;;;5043194;28;20127;-58
2021/12/13 09:52:59;;;;;;;16.55;9.27;;;;;;;;;;5053454;28;20062;-58
2021/12/13 09:55:28;;;;;;;16.10;9.60;;;;;;;;;;5052219;28;20044;-58
2021/12/13 09:57:58;;;;;;;15.20;8.88;;;;;;;;;;5035879;28;20038;-60
2021/12/13 10:00:41;;;;;;;15.40;9.45;;;;;;;;;;5031791;28;20044;-57
2021/12/13 10:03:28;;;;;;;14.45;9.60;;;;;;;;;;5031489;28;20045;-60
2021/12/13 10:05:55;;;;;;;14.38;9.20;;;;;;;;;;5032289;28;20468;-58
2021/12/13 10:08:26;;;;;;;15.65;9.93;;;9.30;99.90;;;;;;5032366;28;20373;-57
2021/12/13 10:11:01;;;;;;;14.48;9.20;;;;;;;;;;5015560;28;20041;-59
2021/12/13 10:13:30;;;;;;;13.93;9.30;;;;;;;;;;5031620;28;20092;-58
2021/12/13 10:15:58;;;;;;;17.92;10.02;;;;;;;;;;5038244;28;20126;-60
2021/12/13 10:18:26;;;;;;;15.27;8.40;;;;;;;;;;5014625;28;20082;-59
2021/12/13 10:20:57;;;;;;;13.13;8.52;;;;;;;;;;5031448;28;20049;-61
2021/12/13 10:23:32;;;;;;;14.73;8.70;;;9.00;99.90;;;;;;5032503;28;20088;-55
2021/12/13 10:25:57;;;;;;;;;;;;;;;;;;5031749;28;20091;-57
2021/12/13 10:28:29;;;;;;;16.65;8.77;;;;;;;;;;5032488;28;20390;-55
2021/12/13 10:31:21;;;;;;;15.80;9.38;;;;;;;;;;5031821;28;20046;-57
2021/12/13 10:33:47;;;;;;;17.33;8.77;;;9.60;99.90;;;;;;5014374;28;20049;-59
2021/12/13 10:36:13;;;;;;;16.08;9.77;;;;;;;;;;5031449;28;20033;-60
2021/12/13 10:38:49;;;;;;;14.70;9.20;;;9.50;99.90;;;;;;5032396;28;20489;-58
2021/12/13 10:41:22;;;;;;;13.65;9.50;;;;;;;;;;5031933;28;20124;-57
2021/12/13 10:43:53;;;;;;;13.93;9.00;;;;;;;;;;5031638;28;20045;-59
2021/12/13 10:46:25;;;;;;;14.30;9.63;;;;;;;;;;5029300;28;20034;-57
2021/12/13 10:48:54;;;;;;;14.27;9.98;;;;;;;;;;5031114;28;20476;-58
2021/12/13 10:51:27;;;;;;;15.88;10.18;;;;;;;;;;5031322;28;20045;-56
2021/12/13 10:53:54;;;;;;;17.37;11.07;;;;;;;;;;5032282;28;20138;-59
2021/12/13 10:56:22;;;;;;;16.65;11.20;;;;;;;;;;5030312;28;20577;-58
2021/12/13 10:58:56;;;;;;;22.30;12.10;;;;;;;;;;5031334;28;20037;-56
2021/12/13 11:01:29;;;;;;;22.83;13.15;;;9.40;99.90;;;;;;5031281;28;20117;-57
2021/12/13 11:03:57;;;;;;;20.33;12.47;;;;;;;;;;5013733;28;20048;-58
2021/12/13 11:06:24;;;;;;;19.83;13.05;;;;;;;;;;5042670;28;20045;-59
2021/12/13 11:08:51;;;;;;;21.30;12.38;;;;;;;;;;5033152;28;20041;-59
2021/12/13 11:11:22;;;;;;;18.85;12.65;;;;;;;;;;5031018;28;20095;-58
2021/12/13 11:13:50;;;;;;;19.52;13.18;;;;;;;;;;5031226;28;20466;-60
2021/12/13 11:16:29;;;;;;;21.67;12.73;;;9.40;99.90;;;;;;5030142;28;20060;-58
2021/12/13 11:18:56;;;;;;;21.50;12.23;;;;;;;;;;5021089;28;20047;-57
2021/12/13 11:21:34;;;;;;;21.77;12.88;;;9.10;99.90;;;;;;5051427;28;20087;-60
2021/12/13 11:24:01;;;;;;;20.45;12.32;;;;;;;;;;5051127;28;20048;-61
2021/12/13 11:26:29;;;;;;;17.20;12.40;;;;;;;;;;5046099;28;20045;-59
2021/12/13 11:28:56;;;;;;;22.17;12.50;;;;;;;;;;5025464;28;20041;-59
2021/12/13 11:31:45;;;;;;;18.00;11.10;;;;;;;;;;4996490;28;20052;-58
2021/12/13 11:34:22;;;;;;;18.08;11.20;;;;;;;;;;4991818;28;20586;-58
2021/12/13 11:37:07;;;;;;;19.38;12.18;;;;;;;;;;5030972;28;20037;-59
2021/12/13 11:39:42;;;;;;;18.25;10.93;;;;;;;;;;5031101;28;20099;-61
2021/12/13 11:42:14;;;;;;;19.73;11.48;;;;;;;;;;5029787;28;20416;-55
2021/12/13 11:44:56;;;;;;;17.00;11.30;;;;;;;;;;5028679;28;20045;-57
2021/12/13 11:47:28;;;;;;;16.27;11.43;;;;;;;;;;5030419;28;20053;-60
2021/12/13 11:50:29;;;;;;;19.80;11.07;;;10.10;99.90;;;;;;5030897;28;20052;-57
2021/12/13 11:53:04;;;;;;;18.70;10.80;;;;;;;;;;4996719;28;20115;-61
2021/12/13 11:56:00;;;;;;;18.02;9.85;;;;;;;;;;5029498;28;20177;-59
2021/12/13 11:58:44;;;;;;;16.15;9.77;;;;;;;;;;5033975;28;20038;-57
2021/12/13 12:01:27;;;;;;;16.27;9.77;;;;;;;;;;5027617;28;20412;-57
2021/12/13 12:04:07;;;;;;;15.98;9.70;;;10.60;99.90;;;;;;5029752;28;20044;-57
2021/12/13 12:06:48;;;;;;;14.95;9.23;;;;;;;;;;5029881;28;20041;-56
2021/12/13 12:09:33;;;;;;;15.48;8.73;;;;;;;;;;5011052;28;20045;-55
2021/12/13 12:11:59;;;;;;;;;;;;;;;;;;5030208;28;20285;-58
2021/12/13 12:14:28;;;;;;;14.40;8.18;;;10.60;99.90;;;;;;5030228;28;20008;-55
2021/12/13 12:16:59;;;;;;;14.13;8.30;;;;;;;;;;5030893;28;20155;-59
2021/12/13 12:19:30;;;;;;;14.30;8.35;;;10.90;99.90;;;;;;5029857;28;20091;-58
2021/12/13 12:22:15;;;;;;;15.63;7.85;;;10.90;99.90;;;;;;5045823;28;20116;-58
2021/12/13 12:24:49;;;;;;;14.35;8.70;;;10.60;99.90;;;;;;5023939;28;20478;-56
2021/12/13 12:27:17;;;;;;;12.95;7.72;;;;;;;;;;5029045;28;20096;-61
2021/12/13 12:29:45;;;;;;;11.80;7.45;;;;;;;;;;5030574;28;20037;-57
2021/12/13 12:32:18;;;;;;;15.32;8.20;;;;;;;;;;5028996;28;20060;-58
2021/12/13 12:35:19;;;;;;;13.38;7.65;;;;;;;;;;5029305;28;20045;-61
2021/12/13 12:37:58;;;;;;;16.50;8.25;;;;;;;;;;4943320;28;20041;-61
2021/12/13 12:41:00;;;;;;;15.10;8.88;;;;;;;;;;5020856;28;20523;-61
2021/12/13 12:43:27;;;;;;;12.88;7.63;;;;;;;;;;4961184;28;20043;-57
2021/12/13 12:45:57;;;;;;;13.40;8.07;;;;;;;;;;5007701;28;20061;-59
2021/12/13 12:48:46;;;;;;;13.02;7.85;;;;;;;;;;5029840;28;20504;-56
2021/12/13 12:51:17;;;;;;;15.77;7.78;;;;;;;;;;5018193;28;20601;-56
2021/12/13 12:54:07;;;;;;;16.08;7.75;;;10.70;99.90;;;;;;5029765;28;20056;-58
2021/12/13 12:56:48;;;;;;;13.82;8.00;;;11.10;99.90;;;;;;5028928;28;20046;-60
2021/12/13 12:59:14;;;;;;;13.55;7.97;;;;;;;;;;5044376;22;20126;-74
2021/12/13 13:01:43;;;;;;;15.07;8.02;;;;;;;;;;5049167;28;20084;-74
2021/12/13 13:04:19;;;;;;;17.33;8.55;;;10.80;99.90;;;;;;5031567;28;20033;-74
2021/12/13 13:07:14;;;;;;;14.98;8.18;;;10.60;99.90;;;;;;5015131;28;20371;-74
2021/12/13 13:09:40;;;;;;;13.85;7.82;;;;;;;;;;5017951;28;20414;-74
2021/12/13 13:12:07;;;;;;;13.63;8.00;;;10.40;99.90;;;;;;5036186;28;20049;-74
2021/12/13 13:14:41;;;;;;;14.23;8.43;;;10.50;99.90;;;;;;5053226;28;20072;-74
2021/12/13 13:17:08;;;;;;;13.38;8.40;;;;;;;;;;5035621;28;20041;-74
2021/12/13 13:19:36;;;;;;;17.27;8.50;;;;;;;;;;5035886;28;20051;-74
2021/12/13 13:22:05;;;;;;;17.52;8.85;;;;;;;;;;5035588;28;20120;-74
2021/12/13 13:24:31;;;;;;;17.15;8.65;;;;;;;;;;5028396;28;20037;-74
2021/12/13 13:26:57;;;;;;;16.98;8.65;;;;;;;;;;5034499;28;20414;-74
2021/12/13 13:29:23;;;;;;;13.23;8.55;;;;;;;;;;5035662;28;20037;-74
2021/12/13 13:31:54;;;;;;;19.25;9.43;;;10.80;99.90;;;;;;5035279;28;20040;-74
2021/12/13 13:34:25;;;;;;;17.35;9.27;;;;;;;;;;5035285;28;20040;-74
2021/12/13 13:37:06;;;;;;;17.85;9.80;;;10.20;99.90;;;;;;5033504;28;20053;-74
2021/12/13 13:39:52;;;;;;;18.83;10.60;;;;;;;;;;5053132;28;20043;-74
2021/12/13 13:42:33;;;;;;;19.80;11.25;;;;;;;;;;5058220;28;20706;-74
2021/12/13 13:45:15;;;;;;;20.08;11.82;;;9.50;99.90;;;;;;5034561;28;20098;-74
2021/12/13 13:47:47;;;;;;;20.98;11.60;;;;;;;;;;5019170;28;20392;-74
2021/12/13 13:50:33;;;;;;;20.83;11.82;;;;;;;;;;5052956;28;20073;-74
2021/12/13 13:53:19;;;;;;;20.50;12.32;;;;;;;;;;5033633;28;20611;-74
2021/12/13 13:55:49;;;;;;;21.60;12.80;;;;;;;;;;5034776;28;20045;-74
2021/12/13 13:58:22;;;;;;;19.83;12.88;;;9.40;99.90;;;;;;5050349;28;20127;-74
2021/12/13 14:01:08;;;;;;;21.00;12.63;;;10.20;99.90;;;;;;5034523;28;20037;-73
2021/12/13 14:03:37;;;;;;;24.20;13.38;;;9.60;99.90;;;;;;5028050;28;20037;-73
2021/12/13 14:06:04;;;;;;;22.80;11.27;;;;;;;;;;5033550;28;20056;-74
2021/12/13 14:08:31;;;;;;;21.70;13.45;;;;;;;;;;5044799;28;20037;-74
2021/12/13 14:10:59;;;;;;;21.60;13.65;;;;;;;;;;5033668;28;20048;-74
2021/12/13 14:13:25;;;;;;;21.33;12.43;;;;;;;;;;5026894;28;20175;-74
2021/12/13 14:15:52;;;;;;;21.58;11.85;;;9.50;99.90;;;;;;5052256;28;20041;-74
2021/12/13 14:18:35;;;;;;;18.27;11.15;;;9.90;99.90;;;;;;5034277;28;20091;-74
2021/12/13 14:21:04;;;;;;;19.77;11.50;;;;;;;;;;5033993;28;20040;-73
2021/12/13 14:23:35;;;;;;;17.98;10.57;;;9.50;99.90;;;;;;5051705;28;20037;-74
2021/12/13 14:26:07;;;;;;;20.10;10.32;;;9.30;99.90;;;;;;5050196;23;20121;-59
2021/12/13 14:28:40;;;;;;;17.70;9.65;;;;;;;;;;5077183;28;20040;-57
2021/12/13 14:31:08;;;;;;;18.65;9.90;;;;;;;;;;5089699;28;20129;-56